Blanchard, ID (83804)

6:36 AM PDT on September 23, 2014 (GMT -0700)
Spirit Lake Idaho | Change Station
CLOSE
Current Station
Personal Weather Station
Location: Spirit Lake, ID
Elevation: 2604 ft
Nearby Weather Stations

Elev 2604 ft 47.96 °N, 116.84 °W | Updated 35 seconds ago

Mostly Cloudy
Mostly Cloudy
55.0 °F
Feels Like 55.0 °F
N
0.0
Wind Variable Wind from SE
Gusts 0.0 mph

Today
High -- | Low -- °F
--% Chance of Precip.
Yesterday
High -- | Low -- °F
Precip. -- in
6:36 AM 6:43 PM
Waning Crescent, 0% visible
Pressure 29.95 in
Visibility 10.0 miles
Clouds Few 5000 ft
Few 10000 ft
Dew Point 53 °F
Humidity 94%
Rainfall 0.00 in
Snow Depth 0 in , 0 in , 0 in
UV 0 out of 12
Pollen 6.10 out of 12
Air Quality Not available.
Flu Activity Not available.
METAR KCOE 231315Z AUTO 13005KT 10SM FEW050 FEW100 16/13 A2995 RMK AO1

More Conditions Fewer Conditions

Pressure 29.95 in
Visibility 10.0 miles
Clouds Few 5000 ft
Few 10000 ft
Dew Point 53 °F
Humidity 94%
Rainfall 0.00 in
Snow Depth 0 in , 0 in , 0 in
UV 0 out of 12
Pollen 6.10 out of 12
Air Quality Not available.
Flu Activity Not available.
METAR KCOE 231315Z AUTO 13005KT 10SM FEW050 FEW100 16/13 A2995 RMK AO1

More Conditions Fewer Conditions

10-Day Weather Forecast

Almanac

Astronomy

Sep. 23, 2014 Rise Set
Actual Time 6:36 AM PDT 6:43 PM PDT
Civil Twilight 6:05 AM PDT 7:14 PM PDT
Nautical Twilight 5:28 AM PDT 7:50 PM PDT
Astronomical Twilight 4:50 AM PDT 8:28 PM PDT
Moon 6:04 AM PDT 6:23 PM PDT
Length of Visible Light 13h 09m
Length of Day
12h 07m
Tomorrow will be 3m 28s shorter.
Waning Crescent, 0% of the Moon is Illuminated
Today
Waning Crescent
Sep 24
New
Oct 1
First Quarter
Oct 8
Full
Oct 15
Last Quarter

Today's Extremes

State Highs State Lows

Community

WunderPhotos

Upload Photos

1,755,669 photos uploaded!

WunderBlogs® & News

Nearby

Snow Depth

Station Depth Elevation
Bogus Basin 0 in 6340 ft
Hilts Creek 0 in 8000 ft
Myrtle Creek 0 in 3520 ft
Bear Basin 0 in 5350 ft
Atlanta Summit 0 in 7580 ft

Earthquake Activity

City Distance Mag. Time & Date
No recent earthquake activity has been reported nearby.
Minimum magnitude displayed is 2.5.

Coastal Water Temperatures

Place Temperature
No Stations Reporting

Nearby Weather Stations